createdAt,value
2022-08-01T00:02:51.340Z,17.80
2022-08-01T00:07:53.625Z,17.70
2022-08-01T00:12:55.882Z,17.80
2022-08-01T00:17:58.255Z,17.70
2022-08-01T00:23:00.522Z,17.70
2022-08-01T00:28:09.573Z,17.80
2022-08-01T00:33:11.838Z,17.80
2022-08-01T00:38:14.122Z,17.80
2022-08-01T00:43:16.542Z,17.80
2022-08-01T00:48:18.852Z,17.70
2022-08-01T00:53:21.159Z,17.70
2022-08-01T00:58:24.326Z,17.80
2022-08-01T01:03:57.118Z,17.80
2022-08-01T01:09:08.517Z,17.70
2022-08-01T01:14:22.727Z,17.60
2022-08-01T01:19:31.421Z,17.70
2022-08-01T01:24:59.833Z,17.60
2022-08-01T01:30:03.073Z,17.60
2022-08-01T01:35:14.973Z,17.60
2022-08-01T01:40:18.864Z,17.50
2022-08-01T01:45:22.109Z,17.50
2022-08-01T01:50:26.236Z,17.50
2022-08-01T01:55:29.749Z,17.50
2022-08-01T02:00:33.370Z,17.50
2022-08-01T02:05:37.895Z,17.50
2022-08-01T02:10:41.725Z,17.40
2022-08-01T02:15:59.676Z,17.40
2022-08-01T02:21:06.549Z,17.50
2022-08-01T02:26:14.663Z,17.40
2022-08-01T02:31:20.922Z,17.30
2022-08-01T02:36:28.851Z,17.30
2022-08-01T02:41:40.822Z,17.30
2022-08-01T02:46:52.533Z,17.20
2022-08-01T02:51:58.117Z,17.20
2022-08-01T02:57:02.433Z,17.10
2022-08-01T03:02:08.543Z,16.90
2022-08-01T03:07:13.615Z,16.80
2022-08-01T03:12:20.845Z,16.80
2022-08-01T03:17:29.823Z,16.80
2022-08-01T03:22:35.033Z,16.90
2022-08-01T03:27:41.028Z,16.90
2022-08-01T03:32:44.807Z,16.90
2022-08-01T03:38:15.267Z,17.00
2022-08-01T03:43:31.682Z,17.00
2022-08-01T03:48:37.647Z,17.00
2022-08-01T03:53:43.443Z,17.00
2022-08-01T03:58:50.902Z,17.00
2022-08-01T04:09:51.925Z,16.90
2022-08-01T04:20:53.054Z,17.00
2022-08-01T04:26:05.675Z,17.00
2022-08-01T04:31:23.740Z,16.90
2022-08-01T04:36:38.038Z,16.90
2022-08-01T04:41:51.109Z,16.80
2022-08-01T04:46:55.670Z,16.80
2022-08-01T04:52:04.661Z,16.90
2022-08-01T04:57:07.141Z,16.90
2022-08-01T05:02:17.252Z,16.90
2022-08-01T05:07:20.689Z,16.90
2022-08-01T05:12:25.610Z,17.00
2022-08-01T05:17:29.045Z,17.00
2022-08-01T05:22:34.439Z,17.10
2022-08-01T05:27:40.557Z,17.10
2022-08-01T05:33:07.232Z,17.10
2022-08-01T05:38:11.608Z,17.20
2022-08-01T05:43:18.719Z,17.10
2022-08-01T05:48:21.590Z,17.20
2022-08-01T05:53:52.772Z,17.30
2022-08-01T05:58:55.118Z,17.40
2022-08-01T06:04:08.013Z,17.40
2022-08-01T06:09:10.487Z,17.50
2022-08-01T06:14:13.330Z,17.50
2022-08-01T06:19:27.526Z,17.50
2022-08-01T06:24:30.885Z,17.60
2022-08-01T06:29:33.591Z,17.60
2022-08-01T06:34:36.037Z,17.60
2022-08-01T06:39:39.431Z,17.70
2022-08-01T06:44:42.203Z,17.80
2022-08-01T06:49:44.411Z,17.80
2022-08-01T06:54:46.761Z,18.00
2022-08-01T06:59:54.520Z,18.10
2022-08-01T07:05:01.189Z,18.10
2022-08-01T07:10:04.371Z,18.20
2022-08-01T07:15:09.844Z,18.20
2022-08-01T07:20:13.760Z,18.00
2022-08-01T07:25:18.579Z,18.00
2022-08-01T07:30:20.909Z,18.00
2022-08-01T07:35:23.280Z,18.00
2022-08-01T07:40:25.546Z,18.20
2022-08-01T07:45:28.118Z,18.20
2022-08-01T07:50:31.109Z,18.30
2022-08-01T07:55:36.552Z,18.20
2022-08-01T08:00:38.937Z,18.20
2022-08-01T08:05:57.731Z,18.10
2022-08-01T08:11:02.754Z,18.00
2022-08-01T08:16:05.152Z,18.10
2022-08-01T08:21:07.566Z,18.30
2022-08-01T08:26:09.957Z,18.20
2022-08-01T08:31:25.468Z,18.00
2022-08-01T08:36:34.824Z,17.90
2022-08-01T08:41:38.380Z,18.00
2022-08-01T08:46:49.228Z,18.00
2022-08-01T08:51:53.558Z,18.10
2022-08-01T08:56:57.104Z,18.30
2022-08-01T09:02:00.118Z,18.50
2022-08-01T09:07:04.938Z,18.70
2022-08-01T09:12:09.778Z,18.90
2022-08-01T09:17:13.701Z,18.80
2022-08-01T09:22:23.954Z,18.90
2022-08-01T09:27:26.604Z,18.90
2022-08-01T09:33:00.541Z,18.90
2022-08-01T09:38:27.819Z,19.10
2022-08-01T09:43:39.753Z,19.40
2022-08-01T09:49:49.798Z,19.50
2022-08-01T09:54:59.991Z,19.40
2022-08-01T10:00:05.704Z,19.50
2022-08-01T10:05:32.494Z,19.60
2022-08-01T10:10:41.404Z,19.80
2022-08-01T10:15:48.927Z,19.90
2022-08-01T10:20:51.293Z,19.80
2022-08-01T10:25:56.273Z,19.80
2022-08-01T10:31:00.936Z,19.90
2022-08-01T10:36:08.619Z,20.20
2022-08-01T10:41:12.406Z,20.40
2022-08-01T10:46:16.118Z,20.50
2022-08-01T10:51:22.455Z,20.50
2022-08-01T10:56:48.895Z,20.50
2022-08-01T11:02:05.203Z,20.60
2022-08-01T11:07:14.670Z,20.50
2022-08-01T11:12:23.588Z,20.30
2022-08-01T11:17:37.895Z,20.30
2022-08-01T11:30:13.168Z,20.80
2022-08-01T11:35:18.005Z,20.80
2022-08-01T11:40:26.467Z,20.90
2022-08-01T11:46:00.846Z,21.10
2022-08-01T11:51:03.359Z,21.60
2022-08-01T11:56:05.838Z,21.80
2022-08-01T12:02:01.276Z,21.90
2022-08-01T12:07:15.576Z,22.00
2022-08-01T12:12:18.873Z,21.90
2022-08-01T12:18:21.366Z,22.10
2022-08-01T12:29:03.697Z,22.10
2022-08-01T12:34:27.557Z,22.20
2022-08-01T12:39:54.075Z,22.30
2022-08-01T12:44:56.876Z,22.30
2022-08-01T12:49:59.856Z,22.20
2022-08-01T12:55:15.258Z,22.20
2022-08-01T13:00:32.316Z,22.30
2022-08-01T13:06:02.698Z,22.30
2022-08-01T13:11:15.572Z,22.60
2022-08-01T13:16:30.179Z,22.50
2022-08-01T13:21:55.022Z,22.60
2022-08-01T13:27:01.196Z,22.50
2022-08-01T13:32:28.877Z,22.60
2022-08-01T13:37:32.966Z,22.70
2022-08-01T13:42:35.919Z,22.70
2022-08-01T13:47:38.683Z,23.00
2022-08-01T13:53:01.091Z,23.30
2022-08-01T13:58:08.422Z,23.60
2022-08-01T14:03:11.085Z,23.90
2022-08-01T14:08:15.145Z,23.90
2022-08-01T14:13:23.675Z,23.80
2022-08-01T14:18:28.203Z,23.90
2022-08-01T14:23:32.707Z,24.00
2022-08-01T14:28:38.193Z,23.80
2022-08-01T14:33:45.339Z,24.00
2022-08-01T14:39:01.215Z,24.30
2022-08-01T14:44:28.633Z,24.10
2022-08-01T14:49:45.355Z,24.20
2022-08-01T14:54:48.104Z,24.70
2022-08-01T15:00:02.959Z,24.40
2022-08-01T15:05:06.823Z,24.00
2022-08-01T15:10:10.587Z,23.90
2022-08-01T15:15:13.316Z,23.90
2022-08-01T15:20:15.613Z,23.80
2022-08-01T15:25:40.721Z,23.80
2022-08-01T15:30:44.978Z,23.70
2022-08-01T15:36:06.710Z,23.70
2022-08-01T15:41:33.148Z,23.80
2022-08-01T15:46:36.873Z,23.80
2022-08-01T15:51:42.431Z,23.50
2022-08-01T15:56:46.177Z,23.50
2022-08-01T16:02:04.535Z,23.60
2022-08-01T16:12:57.799Z,23.90
2022-08-01T16:18:07.023Z,23.70
2022-08-01T16:23:13.849Z,23.50
2022-08-01T16:28:20.356Z,23.30
2022-08-01T16:33:41.559Z,23.30
2022-08-01T16:38:58.682Z,23.40
2022-08-01T16:44:10.641Z,23.20
2022-08-01T16:49:17.631Z,23.10
2022-08-01T17:13:40.042Z,22.00
2022-08-01T17:18:48.850Z,21.80
2022-08-01T17:24:00.253Z,22.00
2022-08-01T17:29:03.758Z,21.90
2022-08-01T17:34:13.526Z,21.90
2022-08-01T17:39:21.849Z,21.90
2022-08-01T17:44:37.086Z,22.00
2022-08-01T17:49:54.218Z,22.00
2022-08-01T18:00:27.740Z,21.50
2022-08-01T18:05:36.789Z,21.50
2022-08-01T18:10:48.009Z,21.30
2022-08-01T18:15:51.056Z,21.20
2022-08-01T18:20:53.488Z,21.20
2022-08-01T18:26:03.237Z,21.20
2022-08-01T18:31:06.507Z,21.00
2022-08-01T18:36:14.155Z,20.90
2022-08-01T18:41:37.379Z,20.80
2022-08-01T18:46:47.546Z,20.60
2022-08-01T18:51:50.150Z,20.50
2022-08-01T18:56:53.030Z,20.20
2022-08-01T19:01:55.457Z,20.10
2022-08-01T19:06:57.823Z,20.10
2022-08-01T19:12:00.138Z,20.00
2022-08-01T19:17:02.496Z,19.90
2022-08-01T19:22:04.914Z,19.80
2022-08-01T19:27:09.920Z,19.70
2022-08-01T19:32:12.407Z,19.60
2022-08-01T19:37:16.022Z,19.50
2022-08-01T19:42:18.385Z,19.30
2022-08-01T19:47:20.799Z,19.20
2022-08-01T19:52:26.196Z,19.10
2022-08-01T19:57:45.280Z,19.00
2022-08-01T20:02:50.486Z,18.90
2022-08-01T20:07:52.823Z,18.80
2022-08-01T20:12:57.790Z,18.70
2022-08-01T20:18:00.819Z,18.60
2022-08-01T20:23:03.782Z,18.60
2022-08-01T20:28:08.624Z,18.50
2022-08-01T20:33:11.925Z,18.50
2022-08-01T20:38:15.955Z,18.50
2022-08-01T20:43:22.536Z,18.40
2022-08-01T20:48:27.139Z,18.40
2022-08-01T20:53:31.554Z,18.40
2022-08-01T20:59:09.279Z,18.30
2022-08-01T21:04:23.819Z,18.20
2022-08-01T21:09:36.900Z,18.20
2022-08-01T21:14:53.676Z,18.20
2022-08-01T21:20:00.206Z,18.20
2022-08-01T21:25:07.800Z,18.20
2022-08-01T21:30:10.675Z,18.20
2022-08-01T21:35:16.341Z,18.10
2022-08-01T21:40:23.270Z,18.10
2022-08-01T21:45:27.285Z,18.10
2022-08-01T21:50:32.223Z,18.10
2022-08-01T21:55:59.140Z,18.20
2022-08-01T22:01:13.681Z,18.30
2022-08-01T22:06:19.037Z,18.40
2022-08-01T22:11:25.030Z,18.40
2022-08-01T22:16:30.497Z,18.50
2022-08-01T22:21:32.927Z,18.40
2022-08-01T22:26:37.411Z,18.50
2022-08-01T22:31:40.137Z,18.50
2022-08-01T22:36:42.340Z,18.50
2022-08-01T22:42:01.955Z,18.50
2022-08-01T22:47:09.996Z,18.60
2022-08-01T22:52:20.837Z,18.50
2022-08-01T22:57:51.082Z,18.50
2022-08-01T23:02:58.274Z,18.50
2022-08-01T23:08:03.974Z,18.50
2022-08-01T23:13:07.181Z,18.40
2022-08-01T23:18:10.027Z,18.40
2022-08-01T23:23:13.688Z,18.40
2022-08-01T23:28:17.016Z,18.40
2022-08-01T23:33:19.510Z,18.40
2022-08-01T23:38:21.812Z,18.40
2022-08-01T23:43:24.191Z,18.50
2022-08-01T23:48:27.378Z,18.50
2022-08-01T23:53:31.100Z,18.50
2022-08-01T23:58:33.658Z,18.50
